sensor_id;sensor_type;location;lat;lon;timestamp;P1;durP1;ratioP1;P2;durP2;ratioP2
54517;SDS011;40423;53.176;6.002;2023-03-01T00:01:35;17.55;;;11.48;;
54517;SDS011;40423;53.176;6.002;2023-03-01T00:04:01;19.25;;;12.25;;
54517;SDS011;40423;53.176;6.002;2023-03-01T00:06:27;19.27;;;11.95;;
54517;SDS011;40423;53.176;6.002;2023-03-01T00:08:53;20.17;;;12.45;;
54517;SDS011;40423;53.176;6.002;2023-03-01T00:11:21;19.88;;;12.27;;
54517;SDS011;40423;53.176;6.002;2023-03-01T00:13:49;20.80;;;12.45;;
54517;SDS011;40423;53.176;6.002;2023-03-01T00:16:19;26.33;;;14.25;;
54517;SDS011;40423;53.176;6.002;2023-03-01T00:18:47;22.50;;;13.13;;
54517;SDS011;40423;53.176;6.002;2023-03-01T00:21:13;19.90;;;12.55;;
54517;SDS011;40423;53.176;6.002;2023-03-01T00:23:39;17.52;;;11.52;;
54517;SDS011;40423;53.176;6.002;2023-03-01T00:26:06;21.02;;;13.18;;
54517;SDS011;40423;53.176;6.002;2023-03-01T00:28:34;21.20;;;12.95;;
54517;SDS011;40423;53.176;6.002;2023-03-01T00:31:07;22.60;;;12.60;;
54517;SDS011;40423;53.176;6.002;2023-03-01T00:33:35;22.02;;;14.48;;
54517;SDS011;40423;53.176;6.002;2023-03-01T00:36:01;25.33;;;16.42;;
54517;SDS011;40423;53.176;6.002;2023-03-01T00:38:27;27.23;;;16.75;;
54517;SDS011;40423;53.176;6.002;2023-03-01T00:40:53;24.00;;;16.63;;
54517;SDS011;40423;53.176;6.002;2023-03-01T00:45:54;22.45;;;15.18;;
54517;SDS011;40423;53.176;6.002;2023-03-01T00:48:20;23.70;;;13.95;;
54517;SDS011;40423;53.176;6.002;2023-03-01T00:50:45;20.77;;;13.10;;
54517;SDS011;40423;53.176;6.002;2023-03-01T00:53:11;21.48;;;14.45;;
54517;SDS011;40423;53.176;6.002;2023-03-01T00:55:37;30.48;;;17.40;;
54517;SDS011;40423;53.176;6.002;2023-03-01T00:58:02;32.13;;;17.85;;
54517;SDS011;40423;53.176;6.002;2023-03-01T01:00:28;170.30;;;21.80;;
54517;SDS011;40423;53.176;6.002;2023-03-01T01:02:54;62.97;;;18.92;;
54517;SDS011;40423;53.176;6.002;2023-03-01T01:05:19;74.45;;;19.35;;
54517;SDS011;40423;53.176;6.002;2023-03-01T01:07:46;61.70;;;19.05;;
54517;SDS011;40423;53.176;6.002;2023-03-01T01:10:13;42.75;;;17.38;;
54517;SDS011;40423;53.176;6.002;2023-03-01T01:12:42;62.22;;;19.38;;
54517;SDS011;40423;53.176;6.002;2023-03-01T01:15:09;117.55;;;20.85;;
54517;SDS011;40423;53.176;6.002;2023-03-01T01:17:38;58.80;;;19.00;;
54517;SDS011;40423;53.176;6.002;2023-03-01T01:20:03;49.55;;;16.45;;
54517;SDS011;40423;53.176;6.002;2023-03-01T01:22:29;83.85;;;18.27;;
54517;SDS011;40423;53.176;6.002;2023-03-01T01:24:55;116.80;;;20.02;;
54517;SDS011;40423;53.176;6.002;2023-03-01T01:27:21;29.02;;;14.57;;
54517;SDS011;40423;53.176;6.002;2023-03-01T01:29:46;23.40;;;14.75;;
54517;SDS011;40423;53.176;6.002;2023-03-01T01:32:12;35.88;;;16.58;;
54517;SDS011;40423;53.176;6.002;2023-03-01T01:34:38;22.35;;;14.18;;
54517;SDS011;40423;53.176;6.002;2023-03-01T01:37:04;23.58;;;14.98;;
54517;SDS011;40423;53.176;6.002;2023-03-01T01:39:33;22.15;;;14.55;;
54517;SDS011;40423;53.176;6.002;2023-03-01T01:42:00;22.83;;;14.35;;
54517;SDS011;40423;53.176;6.002;2023-03-01T01:44:27;31.38;;;14.05;;
54517;SDS011;40423;53.176;6.002;2023-03-01T01:49:35;20.70;;;11.68;;
54517;SDS011;40423;53.176;6.002;2023-03-01T01:54:31;22.25;;;12.80;;
54517;SDS011;40423;53.176;6.002;2023-03-01T01:57:06;20.70;;;12.23;;
54517;SDS011;40423;53.176;6.002;2023-03-01T01:59:35;22.33;;;13.15;;
54517;SDS011;40423;53.176;6.002;2023-03-01T02:02:02;57.85;;;13.98;;
54517;SDS011;40423;53.176;6.002;2023-03-01T02:04:29;136.00;;;17.65;;
54517;SDS011;40423;53.176;6.002;2023-03-01T02:06:58;66.85;;;14.93;;
54517;SDS011;40423;53.176;6.002;2023-03-01T02:09:54;73.50;;;15.80;;
54517;SDS011;40423;53.176;6.002;2023-03-01T02:12:21;25.45;;;12.63;;
54517;SDS011;40423;53.176;6.002;2023-03-01T02:14:49;93.10;;;17.70;;
54517;SDS011;40423;53.176;6.002;2023-03-01T02:17:15;66.05;;;15.85;;
54517;SDS011;40423;53.176;6.002;2023-03-01T02:22:22;67.53;;;13.88;;
54517;SDS011;40423;53.176;6.002;2023-03-01T02:27:28;18.55;;;11.18;;
54517;SDS011;40423;53.176;6.002;2023-03-01T02:30:14;14.25;;;9.95;;
54517;SDS011;40423;53.176;6.002;2023-03-01T02:32:40;46.05;;;10.05;;
54517;SDS011;40423;53.176;6.002;2023-03-01T02:35:10;71.15;;;13.48;;
54517;SDS011;40423;53.176;6.002;2023-03-01T02:37:39;157.05;;;15.98;;
54517;SDS011;40423;53.176;6.002;2023-03-01T02:40:07;26.77;;;10.60;;
54517;SDS011;40423;53.176;6.002;2023-03-01T02:42:40;95.53;;;13.00;;
54517;SDS011;40423;53.176;6.002;2023-03-01T02:45:16;47.43;;;9.97;;
54517;SDS011;40423;53.176;6.002;2023-03-01T02:47:42;48.03;;;11.43;;
54517;SDS011;40423;53.176;6.002;2023-03-01T02:50:14;63.42;;;11.77;;
54517;SDS011;40423;53.176;6.002;2023-03-01T02:55:38;42.83;;;10.03;;
54517;SDS011;40423;53.176;6.002;2023-03-01T02:58:05;21.83;;;9.85;;
54517;SDS011;40423;53.176;6.002;2023-03-01T03:00:38;90.07;;;13.32;;
54517;SDS011;40423;53.176;6.002;2023-03-01T03:03:10;127.57;;;13.27;;
54517;SDS011;40423;53.176;6.002;2023-03-01T03:05:39;196.23;;;17.33;;
54517;SDS011;40423;53.176;6.002;2023-03-01T03:08:05;59.97;;;11.13;;
54517;SDS011;40423;53.176;6.002;2023-03-01T03:10:33;84.20;;;14.27;;
54517;SDS011;40423;53.176;6.002;2023-03-01T03:13:06;35.77;;;9.50;;
54517;SDS011;40423;53.176;6.002;2023-03-01T03:15:34;50.10;;;11.33;;
54517;SDS011;40423;53.176;6.002;2023-03-01T03:18:02;87.80;;;12.53;;
54517;SDS011;40423;53.176;6.002;2023-03-01T03:20:29;131.33;;;16.03;;
54517;SDS011;40423;53.176;6.002;2023-03-01T03:22:57;128.18;;;14.02;;
54517;SDS011;40423;53.176;6.002;2023-03-01T03:25:24;35.97;;;9.60;;
54517;SDS011;40423;53.176;6.002;2023-03-01T03:27:51;78.37;;;12.80;;
54517;SDS011;40423;53.176;6.002;2023-03-01T03:30:23;182.77;;;17.53;;
54517;SDS011;40423;53.176;6.002;2023-03-01T03:32:51;87.07;;;11.70;;
54517;SDS011;40423;53.176;6.002;2023-03-01T03:35:23;218.67;;;20.47;;
54517;SDS011;40423;53.176;6.002;2023-03-01T03:37:58;405.23;;;30.17;;
54517;SDS011;40423;53.176;6.002;2023-03-01T03:40:38;235.10;;;23.13;;
54517;SDS011;40423;53.176;6.002;2023-03-01T03:43:09;370.27;;;28.57;;
54517;SDS011;40423;53.176;6.002;2023-03-01T03:45:40;244.73;;;23.13;;
54517;SDS011;40423;53.176;6.002;2023-03-01T03:48:07;92.77;;;14.77;;
54517;SDS011;40423;53.176;6.002;2023-03-01T03:50:37;216.80;;;22.60;;
54517;SDS011;40423;53.176;6.002;2023-03-01T03:53:05;81.80;;;13.90;;
54517;SDS011;40423;53.176;6.002;2023-03-01T03:55:34;55.97;;;14.17;;
54517;SDS011;40423;53.176;6.002;2023-03-01T03:58:04;203.70;;;22.57;;
54517;SDS011;40423;53.176;6.002;2023-03-01T04:00:38;24.60;;;10.70;;
54517;SDS011;40423;53.176;6.002;2023-03-01T04:03:06;18.47;;;10.93;;
54517;SDS011;40423;53.176;6.002;2023-03-01T04:05:32;138.50;;;17.73;;
54517;SDS011;40423;53.176;6.002;2023-03-01T04:07:59;67.43;;;13.13;;
54517;SDS011;40423;53.176;6.002;2023-03-01T04:10:28;132.77;;;16.90;;
54517;SDS011;40423;53.176;6.002;2023-03-01T04:12:56;73.93;;;13.67;;
54517;SDS011;40423;53.176;6.002;2023-03-01T04:15:22;38.43;;;13.50;;
54517;SDS011;40423;53.176;6.002;2023-03-01T04:17:49;19.63;;;11.93;;
54517;SDS011;40423;53.176;6.002;2023-03-01T04:20:21;14.83;;;9.90;;
54517;SDS011;40423;53.176;6.002;2023-03-01T04:23:01;18.47;;;11.33;;
54517;SDS011;40423;53.176;6.002;2023-03-01T04:25:39;15.70;;;9.48;;
54517;SDS011;40423;53.176;6.002;2023-03-01T04:28:07;15.83;;;10.77;;
54517;SDS011;40423;53.176;6.002;2023-03-01T04:30:34;20.90;;;12.57;;
54517;SDS011;40423;53.176;6.002;2023-03-01T04:33:02;15.87;;;10.30;;
54517;SDS011;40423;53.176;6.002;2023-03-01T04:35:29;16.80;;;10.37;;
54517;SDS011;40423;53.176;6.002;2023-03-01T04:37:56;18.13;;;10.50;;
54517;SDS011;40423;53.176;6.002;2023-03-01T04:40:21;31.90;;;14.90;;
54517;SDS011;40423;53.176;6.002;2023-03-01T04:42:47;30.57;;;16.30;;
54517;SDS011;40423;53.176;6.002;2023-03-01T04:45:13;60.97;;;17.83;;
54517;SDS011;40423;53.176;6.002;2023-03-01T04:47:39;71.93;;;18.07;;
54517;SDS011;40423;53.176;6.002;2023-03-01T04:50:06;66.60;;;15.67;;
54517;SDS011;40423;53.176;6.002;2023-03-01T04:52:33;74.43;;;15.63;;
54517;SDS011;40423;53.176;6.002;2023-03-01T04:54:59;128.40;;;20.17;;
54517;SDS011;40423;53.176;6.002;2023-03-01T04:57:24;23.80;;;11.67;;
54517;SDS011;40423;53.176;6.002;2023-03-01T04:59:50;24.33;;;12.73;;
54517;SDS011;40423;53.176;6.002;2023-03-01T05:02:16;55.53;;;17.30;;
54517;SDS011;40423;53.176;6.002;2023-03-01T05:04:41;27.67;;;12.57;;
54517;SDS011;40423;53.176;6.002;2023-03-01T05:07:07;19.57;;;11.97;;
54517;SDS011;40423;53.176;6.002;2023-03-01T05:09:33;17.13;;;11.63;;
54517;SDS011;40423;53.176;6.002;2023-03-01T05:11:59;16.83;;;10.93;;
54517;SDS011;40423;53.176;6.002;2023-03-01T05:14:24;18.13;;;11.57;;
54517;SDS011;40423;53.176;6.002;2023-03-01T05:16:50;19.47;;;10.87;;
54517;SDS011;40423;53.176;6.002;2023-03-01T05:19:16;17.90;;;11.93;;
54517;SDS011;40423;53.176;6.002;2023-03-01T05:21:42;16.67;;;11.47;;
54517;SDS011;40423;53.176;6.002;2023-03-01T05:24:27;21.70;;;12.63;;
54517;SDS011;40423;53.176;6.002;2023-03-01T05:26:53;23.77;;;14.07;;
54517;SDS011;40423;53.176;6.002;2023-03-01T05:29:22;25.57;;;14.07;;
54517;SDS011;40423;53.176;6.002;2023-03-01T05:31:53;24.73;;;14.52;;
54517;SDS011;40423;53.176;6.002;2023-03-01T05:34:30;27.35;;;14.60;;
54517;SDS011;40423;53.176;6.002;2023-03-01T05:36:57;23.37;;;14.43;;
54517;SDS011;40423;53.176;6.002;2023-03-01T05:39:24;22.17;;;14.13;;
54517;SDS011;40423;53.176;6.002;2023-03-01T05:41:52;21.90;;;13.17;;
54517;SDS011;40423;53.176;6.002;2023-03-01T05:44:19;29.87;;;17.50;;
54517;SDS011;40423;53.176;6.002;2023-03-01T05:46:45;27.57;;;16.00;;
54517;SDS011;40423;53.176;6.002;2023-03-01T05:49:11;26.47;;;16.13;;
54517;SDS011;40423;53.176;6.002;2023-03-01T05:51:41;31.20;;;16.10;;
54517;SDS011;40423;53.176;6.002;2023-03-01T05:54:08;25.47;;;15.40;;
54517;SDS011;40423;53.176;6.002;2023-03-01T05:56:35;22.47;;;14.40;;
54517;SDS011;40423;53.176;6.002;2023-03-01T05:59:02;25.47;;;14.37;;
54517;SDS011;40423;53.176;6.002;2023-03-01T06:01:30;27.23;;;14.67;;
54517;SDS011;40423;53.176;6.002;2023-03-01T06:03:56;23.43;;;14.77;;
54517;SDS011;40423;53.176;6.002;2023-03-01T06:06:22;21.37;;;13.13;;
54517;SDS011;40423;53.176;6.002;2023-03-01T06:08:49;26.23;;;14.80;;
54517;SDS011;40423;53.176;6.002;2023-03-01T06:11:14;29.97;;;16.67;;
54517;SDS011;40423;53.176;6.002;2023-03-01T06:13:41;28.30;;;17.30;;
54517;SDS011;40423;53.176;6.002;2023-03-01T06:16:07;32.03;;;17.90;;
54517;SDS011;40423;53.176;6.002;2023-03-01T06:18:33;25.97;;;16.00;;
54517;SDS011;40423;53.176;6.002;2023-03-01T06:20:59;30.33;;;17.77;;
54517;SDS011;40423;53.176;6.002;2023-03-01T06:23:25;30.77;;;17.33;;
54517;SDS011;40423;53.176;6.002;2023-03-01T06:25:51;28.03;;;16.63;;
54517;SDS011;40423;53.176;6.002;2023-03-01T06:28:16;19.43;;;12.57;;
54517;SDS011;40423;53.176;6.002;2023-03-01T06:30:42;24.43;;;14.27;;
54517;SDS011;40423;53.176;6.002;2023-03-01T06:33:08;23.63;;;14.27;;
54517;SDS011;40423;53.176;6.002;2023-03-01T06:35:34;24.80;;;14.43;;
54517;SDS011;40423;53.176;6.002;2023-03-01T06:38:00;19.73;;;13.20;;
54517;SDS011;40423;53.176;6.002;2023-03-01T06:40:27;23.47;;;13.60;;
54517;SDS011;40423;53.176;6.002;2023-03-01T06:42:53;20.17;;;12.27;;
54517;SDS011;40423;53.176;6.002;2023-03-01T06:45:19;21.03;;;13.03;;
54517;SDS011;40423;53.176;6.002;2023-03-01T06:47:46;17.17;;;10.47;;
54517;SDS011;40423;53.176;6.002;2023-03-01T06:50:12;20.10;;;12.60;;
54517;SDS011;40423;53.176;6.002;2023-03-01T06:52:38;18.10;;;11.23;;
54517;SDS011;40423;53.176;6.002;2023-03-01T06:55:05;17.20;;;11.10;;
54517;SDS011;40423;53.176;6.002;2023-03-01T06:57:31;16.87;;;11.47;;
54517;SDS011;40423;53.176;6.002;2023-03-01T06:59:57;14.27;;;10.13;;
54517;SDS011;40423;53.176;6.002;2023-03-01T07:02:23;14.70;;;10.33;;
54517;SDS011;40423;53.176;6.002;2023-03-01T07:04:49;16.20;;;10.20;;
54517;SDS011;40423;53.176;6.002;2023-03-01T07:07:16;14.73;;;9.30;;
54517;SDS011;40423;53.176;6.002;2023-03-01T07:09:43;15.80;;;10.47;;
54517;SDS011;40423;53.176;6.002;2023-03-01T07:12:11;32.17;;;19.37;;
54517;SDS011;40423;53.176;6.002;2023-03-01T07:14:36;40.97;;;23.50;;
54517;SDS011;40423;53.176;6.002;2023-03-01T07:17:02;47.23;;;27.50;;
54517;SDS011;40423;53.176;6.002;2023-03-01T07:19:28;37.73;;;22.63;;
54517;SDS011;40423;53.176;6.002;2023-03-01T07:21:54;40.40;;;22.33;;
54517;SDS011;40423;53.176;6.002;2023-03-01T07:24:20;33.73;;;19.47;;
54517;SDS011;40423;53.176;6.002;2023-03-01T07:26:50;35.67;;;20.90;;
54517;SDS011;40423;53.176;6.002;2023-03-01T07:29:17;42.43;;;22.07;;
54517;SDS011;40423;53.176;6.002;2023-03-01T07:31:43;38.63;;;20.57;;
54517;SDS011;40423;53.176;6.002;2023-03-01T07:34:09;30.17;;;18.70;;
54517;SDS011;40423;53.176;6.002;2023-03-01T07:36:35;27.67;;;17.27;;
54517;SDS011;40423;53.176;6.002;2023-03-01T07:39:02;29.90;;;17.40;;
54517;SDS011;40423;53.176;6.002;2023-03-01T07:41:28;34.47;;;18.37;;
54517;SDS011;40423;53.176;6.002;2023-03-01T07:43:54;31.20;;;18.73;;
54517;SDS011;40423;53.176;6.002;2023-03-01T07:46:20;32.43;;;19.57;;
54517;SDS011;40423;53.176;6.002;2023-03-01T07:48:46;31.07;;;17.67;;
54517;SDS011;40423;53.176;6.002;2023-03-01T07:51:12;32.77;;;19.03;;
54517;SDS011;40423;53.176;6.002;2023-03-01T07:53:38;28.83;;;16.37;;
54517;SDS011;40423;53.176;6.002;2023-03-01T07:56:04;24.90;;;16.30;;
54517;SDS011;40423;53.176;6.002;2023-03-01T07:58:38;25.13;;;15.23;;
54517;SDS011;40423;53.176;6.002;2023-03-01T08:01:05;26.80;;;16.60;;
54517;SDS011;40423;53.176;6.002;2023-03-01T08:03:33;28.40;;;18.63;;
54517;SDS011;40423;53.176;6.002;2023-03-01T08:06:00;29.27;;;18.37;;
54517;SDS011;40423;53.176;6.002;2023-03-01T08:08:26;26.27;;;17.73;;
54517;SDS011;40423;53.176;6.002;2023-03-01T08:10:52;25.10;;;15.93;;
54517;SDS011;40423;53.176;6.002;2023-03-01T08:13:22;21.03;;;15.00;;
54517;SDS011;40423;53.176;6.002;2023-03-01T08:15:48;23.03;;;16.23;;
54517;SDS011;40423;53.176;6.002;2023-03-01T08:18:14;22.50;;;14.50;;
54517;SDS011;40423;53.176;6.002;2023-03-01T08:20:41;18.37;;;13.30;;
54517;SDS011;40423;53.176;6.002;2023-03-01T08:23:07;18.23;;;13.30;;
54517;SDS011;40423;53.176;6.002;2023-03-01T08:25:32;19.47;;;14.33;;
54517;SDS011;40423;53.176;6.002;2023-03-01T08:27:58;18.87;;;14.17;;
54517;SDS011;40423;53.176;6.002;2023-03-01T08:30:24;21.15;;;14.07;;
54517;SDS011;40423;53.176;6.002;2023-03-01T08:32:50;21.20;;;15.45;;
54517;SDS011;40423;53.176;6.002;2023-03-01T08:35:16;20.70;;;14.85;;
54517;SDS011;40423;53.176;6.002;2023-03-01T08:37:42;20.48;;;13.75;;
54517;SDS011;40423;53.176;6.002;2023-03-01T08:40:10;21.00;;;14.57;;
54517;SDS011;40423;53.176;6.002;2023-03-01T08:42:38;20.40;;;13.80;;
54517;SDS011;40423;53.176;6.002;2023-03-01T08:45:04;19.08;;;13.30;;
54517;SDS011;40423;53.176;6.002;2023-03-01T08:47:31;19.23;;;13.95;;
54517;SDS011;40423;53.176;6.002;2023-03-01T08:49:58;21.52;;;13.98;;
54517;SDS011;40423;53.176;6.002;2023-03-01T08:52:25;21.02;;;14.23;;
54517;SDS011;40423;53.176;6.002;2023-03-01T08:54:51;23.15;;;15.15;;
54517;SDS011;40423;53.176;6.002;2023-03-01T08:57:16;21.42;;;14.50;;
54517;SDS011;40423;53.176;6.002;2023-03-01T08:59:42;19.38;;;14.30;;
54517;SDS011;40423;53.176;6.002;2023-03-01T09:02:12;19.80;;;14.43;;
54517;SDS011;40423;53.176;6.002;2023-03-01T09:04:40;22.88;;;15.82;;
54517;SDS011;40423;53.176;6.002;2023-03-01T09:07:06;17.85;;;13.98;;
54517;SDS011;40423;53.176;6.002;2023-03-01T09:09:32;23.08;;;14.57;;
54517;SDS011;40423;53.176;6.002;2023-03-01T09:11:58;24.33;;;15.63;;
54517;SDS011;40423;53.176;6.002;2023-03-01T09:14:23;26.10;;;17.42;;
54517;SDS011;40423;53.176;6.002;2023-03-01T09:16:49;25.38;;;16.95;;
54517;SDS011;40423;53.176;6.002;2023-03-01T09:19:15;29.00;;;18.70;;
54517;SDS011;40423;53.176;6.002;2023-03-01T09:21:41;30.02;;;16.05;;
54517;SDS011;40423;53.176;6.002;2023-03-01T09:24:17;26.15;;;18.20;;
54517;SDS011;40423;53.176;6.002;2023-03-01T09:26:44;31.02;;;19.17;;
54517;SDS011;40423;53.176;6.002;2023-03-01T09:29:11;24.95;;;17.13;;
54517;SDS011;40423;53.176;6.002;2023-03-01T09:31:37;25.35;;;16.52;;
54517;SDS011;40423;53.176;6.002;2023-03-01T09:34:03;23.30;;;15.80;;
54517;SDS011;40423;53.176;6.002;2023-03-01T09:36:29;23.35;;;14.80;;
54517;SDS011;40423;53.176;6.002;2023-03-01T09:38:55;23.58;;;16.45;;
54517;SDS011;40423;53.176;6.002;2023-03-01T09:44:31;21.00;;;14.38;;
54517;SDS011;40423;53.176;6.002;2023-03-01T09:47:03;20.48;;;13.30;;
54517;SDS011;40423;53.176;6.002;2023-03-01T09:49:31;19.42;;;13.00;;
54517;SDS011;40423;53.176;6.002;2023-03-01T09:52:09;17.10;;;11.57;;
54517;SDS011;40423;53.176;6.002;2023-03-01T09:54:46;20.10;;;12.45;;
54517;SDS011;40423;53.176;6.002;2023-03-01T09:57:19;19.40;;;12.25;;
54517;SDS011;40423;53.176;6.002;2023-03-01T09:59:57;16.63;;;11.95;;
54517;SDS011;40423;53.176;6.002;2023-03-01T10:02:35;18.25;;;11.82;;
54517;SDS011;40423;53.176;6.002;2023-03-01T10:10:57;18.45;;;12.45;;
54517;SDS011;40423;53.176;6.002;2023-03-01T10:13:28;15.38;;;11.40;;
54517;SDS011;40423;53.176;6.002;2023-03-01T10:16:09;19.05;;;12.63;;
54517;SDS011;40423;53.176;6.002;2023-03-01T10:18:41;15.90;;;11.60;;
54517;SDS011;40423;53.176;6.002;2023-03-01T10:21:15;19.40;;;13.07;;
54517;SDS011;40423;53.176;6.002;2023-03-01T10:23:43;20.23;;;13.68;;
54517;SDS011;40423;53.176;6.002;2023-03-01T10:29:08;20.20;;;13.98;;
54517;SDS011;40423;53.176;6.002;2023-03-01T10:31:42;21.65;;;15.20;;
54517;SDS011;40423;53.176;6.002;2023-03-01T10:34:19;17.98;;;13.73;;
54517;SDS011;40423;53.176;6.002;2023-03-01T10:36:48;21.85;;;16.88;;
54517;SDS011;40423;53.176;6.002;2023-03-01T10:39:21;21.40;;;15.90;;
54517;SDS011;40423;53.176;6.002;2023-03-01T10:42:19;21.52;;;15.10;;
54517;SDS011;40423;53.176;6.002;2023-03-01T10:50:38;18.83;;;14.52;;
54517;SDS011;40423;53.176;6.002;2023-03-01T10:55:58;22.75;;;16.63;;
54517;SDS011;40423;53.176;6.002;2023-03-01T10:58:26;22.58;;;16.75;;
54517;SDS011;40423;53.176;6.002;2023-03-01T11:03:27;21.27;;;17.08;;
54517;SDS011;40423;53.176;6.002;2023-03-01T11:08:45;24.05;;;18.05;;
54517;SDS011;40423;53.176;6.002;2023-03-01T11:11:21;21.52;;;17.38;;
54517;SDS011;40423;53.176;6.002;2023-03-01T11:16:24;23.90;;;18.55;;
54517;SDS011;40423;53.176;6.002;2023-03-01T11:19:22;22.80;;;15.82;;
54517;SDS011;40423;53.176;6.002;2023-03-01T11:24:33;19.67;;;15.05;;
54517;SDS011;40423;53.176;6.002;2023-03-01T11:27:03;17.60;;;14.85;;
54517;SDS011;40423;53.176;6.002;2023-03-01T11:29:38;16.85;;;13.43;;
54517;SDS011;40423;53.176;6.002;2023-03-01T11:32:08;21.77;;;15.00;;
54517;SDS011;40423;53.176;6.002;2023-03-01T11:34:48;20.48;;;15.15;;
54517;SDS011;40423;53.176;6.002;2023-03-01T11:37:38;20.60;;;14.68;;
54517;SDS011;40423;53.176;6.002;2023-03-01T11:40:13;16.80;;;13.45;;
54517;SDS011;40423;53.176;6.002;2023-03-01T11:42:49;16.60;;;13.80;;
54517;SDS011;40423;53.176;6.002;2023-03-01T11:51:30;18.52;;;14.18;;
54517;SDS011;40423;53.176;6.002;2023-03-01T12:08:41;16.15;;;12.10;;
54517;SDS011;40423;53.176;6.002;2023-03-01T12:30:23;17.52;;;12.07;;
54517;SDS011;40423;53.176;6.002;2023-03-01T12:38:59;17.02;;;13.57;;
54517;SDS011;40423;53.176;6.002;2023-03-01T12:49:33;16.73;;;12.63;;
54517;SDS011;40423;53.176;6.002;2023-03-01T12:52:09;16.20;;;12.10;;
54517;SDS011;40423;53.176;6.002;2023-03-01T12:54:43;15.65;;;12.30;;
54517;SDS011;40423;53.176;6.002;2023-03-01T13:10:54;14.93;;;11.73;;
54517;SDS011;40423;53.176;6.002;2023-03-01T13:13:25;17.17;;;12.65;;
54517;SDS011;40423;53.176;6.002;2023-03-01T13:15:52;19.08;;;13.13;;
54517;SDS011;40423;53.176;6.002;2023-03-01T13:20:45;15.07;;;12.07;;
54517;SDS011;40423;53.176;6.002;2023-03-01T13:23:35;15.73;;;12.13;;
54517;SDS011;40423;53.176;6.002;2023-03-01T13:28:40;16.17;;;12.85;;
54517;SDS011;40423;53.176;6.002;2023-03-01T13:31:07;18.08;;;12.30;;
54517;SDS011;40423;53.176;6.002;2023-03-01T13:36:08;17.70;;;11.57;;
54517;SDS011;40423;53.176;6.002;2023-03-01T13:39:39;17.20;;;11.55;;
54517;SDS011;40423;53.176;6.002;2023-03-01T13:41:57;15.80;;;11.82;;
54517;SDS011;40423;53.176;6.002;2023-03-01T13:44:35;16.70;;;12.25;;
54517;SDS011;40423;53.176;6.002;2023-03-01T13:50:18;15.07;;;12.57;;
54517;SDS011;40423;53.176;6.002;2023-03-01T13:54:54;16.63;;;12.07;;
54517;SDS011;40423;53.176;6.002;2023-03-01T13:57:22;14.80;;;12.13;;
54517;SDS011;40423;53.176;6.002;2023-03-01T13:59:54;14.63;;;11.77;;
54517;SDS011;40423;53.176;6.002;2023-03-01T14:02:20;16.98;;;12.45;;
54517;SDS011;40423;53.176;6.002;2023-03-01T14:04:55;17.25;;;12.52;;
54517;SDS011;40423;53.176;6.002;2023-03-01T14:07:23;20.45;;;12.70;;
54517;SDS011;40423;53.176;6.002;2023-03-01T14:09:55;16.13;;;11.55;;
54517;SDS011;40423;53.176;6.002;2023-03-01T14:15:38;14.75;;;10.93;;
54517;SDS011;40423;53.176;6.002;2023-03-01T14:18:28;14.57;;;11.95;;
54517;SDS011;40423;53.176;6.002;2023-03-01T14:20:58;15.75;;;11.85;;
54517;SDS011;40423;53.176;6.002;2023-03-01T14:23:24;15.35;;;11.38;;
54517;SDS011;40423;53.176;6.002;2023-03-01T14:25:55;16.83;;;11.18;;
54517;SDS011;40423;53.176;6.002;2023-03-01T14:28:27;15.57;;;11.20;;
54517;SDS011;40423;53.176;6.002;2023-03-01T14:30:56;13.95;;;10.60;;
54517;SDS011;40423;53.176;6.002;2023-03-01T14:38:32;15.15;;;11.27;;
54517;SDS011;40423;53.176;6.002;2023-03-01T14:41:00;16.65;;;12.15;;
54517;SDS011;40423;53.176;6.002;2023-03-01T14:43:32;15.73;;;12.48;;
54517;SDS011;40423;53.176;6.002;2023-03-01T14:46:00;13.60;;;11.25;;
54517;SDS011;40423;53.176;6.002;2023-03-01T14:48:27;14.02;;;11.07;;
54517;SDS011;40423;53.176;6.002;2023-03-01T14:50:54;15.00;;;10.57;;
54517;SDS011;40423;53.176;6.002;2023-03-01T14:53:27;13.98;;;10.48;;
54517;SDS011;40423;53.176;6.002;2023-03-01T14:58:23;16.45;;;10.18;;
54517;SDS011;40423;53.176;6.002;2023-03-01T15:00:54;18.50;;;10.85;;
54517;SDS011;40423;53.176;6.002;2023-03-01T15:03:33;14.10;;;10.00;;
54517;SDS011;40423;53.176;6.002;2023-03-01T15:06:02;18.88;;;11.80;;
54517;SDS011;40423;53.176;6.002;2023-03-01T15:08:30;15.32;;;11.32;;
54517;SDS011;40423;53.176;6.002;2023-03-01T15:11:17;16.23;;;11.73;;
54517;SDS011;40423;53.176;6.002;2023-03-01T15:13:47;16.45;;;11.40;;
54517;SDS011;40423;53.176;6.002;2023-03-01T15:16:14;18.98;;;11.20;;
54517;SDS011;40423;53.176;6.002;2023-03-01T15:18:44;16.65;;;10.77;;
54517;SDS011;40423;53.176;6.002;2023-03-01T15:21:17;13.55;;;10.45;;
54517;SDS011;40423;53.176;6.002;2023-03-01T15:23:53;16.25;;;11.57;;
54517;SDS011;40423;53.176;6.002;2023-03-01T15:26:25;14.77;;;11.07;;
54517;SDS011;40423;53.176;6.002;2023-03-01T15:28:55;17.42;;;12.27;;
54517;SDS011;40423;53.176;6.002;2023-03-01T15:31:35;16.45;;;11.50;;
54517;SDS011;40423;53.176;6.002;2023-03-01T15:34:07;17.20;;;13.60;;
54517;SDS011;40423;53.176;6.002;2023-03-01T15:36:47;17.60;;;12.13;;
54517;SDS011;40423;53.176;6.002;2023-03-01T15:39:26;14.38;;;12.05;;
54517;SDS011;40423;53.176;6.002;2023-03-01T15:42:12;19.17;;;11.82;;
54517;SDS011;40423;53.176;6.002;2023-03-01T15:47:46;12.73;;;10.30;;
54517;SDS011;40423;53.176;6.002;2023-03-01T15:50:30;14.50;;;10.55;;
54517;SDS011;40423;53.176;6.002;2023-03-01T15:52:59;14.45;;;10.63;;
54517;SDS011;40423;53.176;6.002;2023-03-01T15:55:30;14.20;;;11.13;;
54517;SDS011;40423;53.176;6.002;2023-03-01T15:58:16;13.73;;;9.75;;
54517;SDS011;40423;53.176;6.002;2023-03-01T16:00:46;15.63;;;11.30;;
54517;SDS011;40423;53.176;6.002;2023-03-01T16:03:13;13.73;;;10.63;;
54517;SDS011;40423;53.176;6.002;2023-03-01T16:05:46;13.00;;;10.07;;
54517;SDS011;40423;53.176;6.002;2023-03-01T16:08:16;13.60;;;10.85;;
54517;SDS011;40423;53.176;6.002;2023-03-01T16:10:43;12.23;;;9.35;;
54517;SDS011;40423;53.176;6.002;2023-03-01T16:13:10;15.32;;;11.15;;
54517;SDS011;40423;53.176;6.002;2023-03-01T16:15:39;13.35;;;10.00;;
54517;SDS011;40423;53.176;6.002;2023-03-01T16:18:05;13.13;;;10.15;;
54517;SDS011;40423;53.176;6.002;2023-03-01T16:20:33;13.52;;;10.27;;
54517;SDS011;40423;53.176;6.002;2023-03-01T16:22:59;15.18;;;11.40;;
54517;SDS011;40423;53.176;6.002;2023-03-01T16:25:30;15.20;;;11.43;;
54517;SDS011;40423;53.176;6.002;2023-03-01T16:27:57;14.48;;;10.80;;
54517;SDS011;40423;53.176;6.002;2023-03-01T16:30:26;14.55;;;10.95;;
54517;SDS011;40423;53.176;6.002;2023-03-01T16:32:51;16.63;;;12.60;;
54517;SDS011;40423;53.176;6.002;2023-03-01T16:35:18;17.83;;;13.93;;
54517;SDS011;40423;53.176;6.002;2023-03-01T16:37:46;20.77;;;14.32;;
54517;SDS011;40423;53.176;6.002;2023-03-01T16:40:19;19.58;;;15.07;;
54517;SDS011;40423;53.176;6.002;2023-03-01T16:42:46;21.90;;;15.40;;
54517;SDS011;40423;53.176;6.002;2023-03-01T16:45:12;23.98;;;15.00;;
54517;SDS011;40423;53.176;6.002;2023-03-01T16:47:38;21.58;;;14.60;;
54517;SDS011;40423;53.176;6.002;2023-03-01T16:50:04;19.25;;;15.25;;
54517;SDS011;40423;53.176;6.002;2023-03-01T16:52:30;22.13;;;15.23;;
54517;SDS011;40423;53.176;6.002;2023-03-01T16:54:56;18.90;;;15.13;;